Terminal Aerodrome Forecast
Issued by NWS Wilmington, NC

Home | Current Version | Previous Version | Text Only | Print | Product List | Glossary On
Versions: 1 2 3 4 5 6 7 8 9 10 11 12 13 14 15 16 17 18 19 20 21
499
FTUS42 KILM 171724 AAA
TAFLBT
TAF AMD
KLBT 171724Z 1717/1818 19005KT P6SM VCTS BKN045CB
      TEMPO 1719/1722 VRB15KT 2SM TSRA BKN020CB
     FM180200 17004KT P6SM SCT050
     FM181200 22007KT P6SM FEW050=

USA.gov is the U.S. government's official web portal to all federal, state and local government web resources and services.